sensor_id;sensor_type;location;lat;lon;timestamp;P1;durP1;ratioP1;P2;durP2;ratioP2
43807;SDS011;29438;50.664;10.098;2023-03-03T00:00:56;45.13;;;15.45;;
43807;SDS011;29438;50.664;10.098;2023-03-03T00:03:23;45.70;;;14.40;;
43807;SDS011;29438;50.664;10.098;2023-03-03T00:05:50;43.90;;;14.88;;
43807;SDS011;29438;50.664;10.098;2023-03-03T00:08:16;43.05;;;15.38;;
43807;SDS011;29438;50.664;10.098;2023-03-03T00:10:42;43.42;;;15.07;;
43807;SDS011;29438;50.664;10.098;2023-03-03T00:13:22;36.40;;;15.13;;
43807;SDS011;29438;50.664;10.098;2023-03-03T00:15:49;43.45;;;15.30;;
43807;SDS011;29438;50.664;10.098;2023-03-03T00:18:27;40.25;;;15.18;;
43807;SDS011;29438;50.664;10.098;2023-03-03T00:20:58;39.30;;;15.50;;
43807;SDS011;29438;50.664;10.098;2023-03-03T00:23:27;39.72;;;15.02;;
43807;SDS011;29438;50.664;10.098;2023-03-03T00:25:56;43.90;;;14.88;;
43807;SDS011;29438;50.664;10.098;2023-03-03T00:30:51;47.08;;;16.15;;
43807;SDS011;29438;50.664;10.098;2023-03-03T00:33:21;41.40;;;15.10;;
43807;SDS011;29438;50.664;10.098;2023-03-03T00:35:56;47.05;;;15.05;;
43807;SDS011;29438;50.664;10.098;2023-03-03T00:38:30;42.30;;;15.32;;
43807;SDS011;29438;50.664;10.098;2023-03-03T00:40:59;46.08;;;15.40;;
43807;SDS011;29438;50.664;10.098;2023-03-03T00:43:28;46.95;;;15.77;;
43807;SDS011;29438;50.664;10.098;2023-03-03T00:46:00;47.72;;;14.35;;
43807;SDS011;29438;50.664;10.098;2023-03-03T00:48:30;48.70;;;14.85;;
43807;SDS011;29438;50.664;10.098;2023-03-03T00:53:47;47.05;;;16.30;;
43807;SDS011;29438;50.664;10.098;2023-03-03T00:56:13;45.38;;;16.05;;
43807;SDS011;29438;50.664;10.098;2023-03-03T00:58:38;45.55;;;16.00;;
43807;SDS011;29438;50.664;10.098;2023-03-03T01:01:04;43.83;;;15.70;;
43807;SDS011;29438;50.664;10.098;2023-03-03T01:03:29;48.45;;;16.48;;
43807;SDS011;29438;50.664;10.098;2023-03-03T01:05:55;39.83;;;14.93;;
43807;SDS011;29438;50.664;10.098;2023-03-03T01:08:21;44.17;;;15.40;;
43807;SDS011;29438;50.664;10.098;2023-03-03T01:10:48;41.90;;;14.70;;
43807;SDS011;29438;50.664;10.098;2023-03-03T01:13:19;41.50;;;16.02;;
43807;SDS011;29438;50.664;10.098;2023-03-03T01:15:47;46.38;;;15.68;;
43807;SDS011;29438;50.664;10.098;2023-03-03T01:18:13;49.42;;;16.40;;
43807;SDS011;29438;50.664;10.098;2023-03-03T01:20:39;46.20;;;15.50;;
43807;SDS011;29438;50.664;10.098;2023-03-03T01:23:05;50.97;;;16.70;;
43807;SDS011;29438;50.664;10.098;2023-03-03T01:25:31;45.15;;;16.02;;
43807;SDS011;29438;50.664;10.098;2023-03-03T01:27:56;45.28;;;16.35;;
43807;SDS011;29438;50.664;10.098;2023-03-03T01:30:23;44.13;;;14.50;;
43807;SDS011;29438;50.664;10.098;2023-03-03T01:32:50;41.80;;;15.95;;
43807;SDS011;29438;50.664;10.098;2023-03-03T01:35:16;46.67;;;15.38;;
43807;SDS011;29438;50.664;10.098;2023-03-03T01:37:41;51.00;;;15.75;;
43807;SDS011;29438;50.664;10.098;2023-03-03T01:40:11;49.33;;;16.63;;
43807;SDS011;29438;50.664;10.098;2023-03-03T01:42:42;45.17;;;15.27;;
43807;SDS011;29438;50.664;10.098;2023-03-03T01:47:51;46.78;;;16.80;;
43807;SDS011;29438;50.664;10.098;2023-03-03T01:50:31;59.03;;;18.60;;
43807;SDS011;29438;50.664;10.098;2023-03-03T01:53:02;57.55;;;17.88;;
43807;SDS011;29438;50.664;10.098;2023-03-03T01:55:34;83.40;;;16.65;;
43807;SDS011;29438;50.664;10.098;2023-03-03T01:58:07;54.97;;;18.45;;
43807;SDS011;29438;50.664;10.098;2023-03-03T02:00:38;51.15;;;16.58;;
43807;SDS011;29438;50.664;10.098;2023-03-03T02:03:06;52.15;;;16.75;;
43807;SDS011;29438;50.664;10.098;2023-03-03T02:05:32;75.95;;;18.02;;
43807;SDS011;29438;50.664;10.098;2023-03-03T02:07:59;59.90;;;18.13;;
43807;SDS011;29438;50.664;10.098;2023-03-03T02:10:25;61.35;;;18.85;;
43807;SDS011;29438;50.664;10.098;2023-03-03T02:12:54;63.45;;;19.85;;
43807;SDS011;29438;50.664;10.098;2023-03-03T02:15:25;57.65;;;17.95;;
43807;SDS011;29438;50.664;10.098;2023-03-03T02:17:53;68.82;;;18.42;;
43807;SDS011;29438;50.664;10.098;2023-03-03T02:20:33;65.90;;;18.15;;
43807;SDS011;29438;50.664;10.098;2023-03-03T02:23:12;65.22;;;17.95;;
43807;SDS011;29438;50.664;10.098;2023-03-03T02:28:10;63.58;;;17.73;;
43807;SDS011;29438;50.664;10.098;2023-03-03T02:30:36;80.05;;;18.52;;
43807;SDS011;29438;50.664;10.098;2023-03-03T02:33:03;67.30;;;18.17;;
43807;SDS011;29438;50.664;10.098;2023-03-03T02:35:34;59.92;;;17.38;;
43807;SDS011;29438;50.664;10.098;2023-03-03T02:43:26;69.97;;;17.33;;
43807;SDS011;29438;50.664;10.098;2023-03-03T02:46:15;58.33;;;18.45;;
43807;SDS011;29438;50.664;10.098;2023-03-03T02:48:41;63.60;;;18.90;;
43807;SDS011;29438;50.664;10.098;2023-03-03T02:51:06;72.18;;;18.08;;
43807;SDS011;29438;50.664;10.098;2023-03-03T02:53:32;50.80;;;16.30;;
43807;SDS011;29438;50.664;10.098;2023-03-03T02:55:57;64.18;;;18.58;;
43807;SDS011;29438;50.664;10.098;2023-03-03T02:58:23;47.35;;;14.93;;
43807;SDS011;29438;50.664;10.098;2023-03-03T03:00:48;61.97;;;17.50;;
43807;SDS011;29438;50.664;10.098;2023-03-03T03:03:14;60.28;;;17.45;;
43807;SDS011;29438;50.664;10.098;2023-03-03T03:05:39;55.45;;;17.33;;
43807;SDS011;29438;50.664;10.098;2023-03-03T03:08:05;62.28;;;17.90;;
43807;SDS011;29438;50.664;10.098;2023-03-03T03:10:30;53.05;;;17.33;;
43807;SDS011;29438;50.664;10.098;2023-03-03T03:12:56;66.32;;;17.20;;
43807;SDS011;29438;50.664;10.098;2023-03-03T03:15:21;60.97;;;17.25;;
43807;SDS011;29438;50.664;10.098;2023-03-03T03:17:47;60.55;;;17.13;;
43807;SDS011;29438;50.664;10.098;2023-03-03T03:20:13;69.82;;;18.13;;
43807;SDS011;29438;50.664;10.098;2023-03-03T03:22:39;63.40;;;16.98;;
43807;SDS011;29438;50.664;10.098;2023-03-03T03:25:05;60.10;;;16.25;;
43807;SDS011;29438;50.664;10.098;2023-03-03T03:27:30;74.30;;;18.38;;
43807;SDS011;29438;50.664;10.098;2023-03-03T03:29:56;65.20;;;17.13;;
43807;SDS011;29438;50.664;10.098;2023-03-03T03:32:21;64.70;;;16.70;;
43807;SDS011;29438;50.664;10.098;2023-03-03T03:34:47;85.93;;;20.42;;
43807;SDS011;29438;50.664;10.098;2023-03-03T03:37:13;87.53;;;18.95;;
43807;SDS011;29438;50.664;10.098;2023-03-03T03:39:39;79.25;;;19.20;;
43807;SDS011;29438;50.664;10.098;2023-03-03T03:42:05;77.57;;;20.48;;
43807;SDS011;29438;50.664;10.098;2023-03-03T03:44:30;62.47;;;18.58;;
43807;SDS011;29438;50.664;10.098;2023-03-03T03:46:56;58.92;;;18.05;;
43807;SDS011;29438;50.664;10.098;2023-03-03T03:49:21;69.25;;;18.65;;
43807;SDS011;29438;50.664;10.098;2023-03-03T03:51:47;60.90;;;17.05;;
43807;SDS011;29438;50.664;10.098;2023-03-03T03:54:12;70.05;;;19.45;;
43807;SDS011;29438;50.664;10.098;2023-03-03T03:56:38;73.30;;;18.70;;
43807;SDS011;29438;50.664;10.098;2023-03-03T03:59:04;64.38;;;18.05;;
43807;SDS011;29438;50.664;10.098;2023-03-03T04:01:31;52.88;;;16.45;;
43807;SDS011;29438;50.664;10.098;2023-03-03T04:03:57;65.65;;;18.08;;
43807;SDS011;29438;50.664;10.098;2023-03-03T04:06:22;66.20;;;18.67;;
43807;SDS011;29438;50.664;10.098;2023-03-03T04:08:48;58.33;;;17.00;;
43807;SDS011;29438;50.664;10.098;2023-03-03T04:11:13;70.30;;;16.20;;
43807;SDS011;29438;50.664;10.098;2023-03-03T04:13:39;58.00;;;16.88;;
43807;SDS011;29438;50.664;10.098;2023-03-03T04:16:04;90.20;;;19.92;;
43807;SDS011;29438;50.664;10.098;2023-03-03T04:18:30;77.00;;;20.05;;
43807;SDS011;29438;50.664;10.098;2023-03-03T04:20:56;68.85;;;19.38;;
43807;SDS011;29438;50.664;10.098;2023-03-03T04:23:21;66.40;;;17.95;;
43807;SDS011;29438;50.664;10.098;2023-03-03T04:25:47;57.67;;;16.75;;
43807;SDS011;29438;50.664;10.098;2023-03-03T04:28:14;70.45;;;17.42;;
43807;SDS011;29438;50.664;10.098;2023-03-03T04:30:40;56.47;;;17.15;;
43807;SDS011;29438;50.664;10.098;2023-03-03T04:33:06;57.95;;;17.30;;
43807;SDS011;29438;50.664;10.098;2023-03-03T04:35:32;57.75;;;16.85;;
43807;SDS011;29438;50.664;10.098;2023-03-03T04:37:57;63.30;;;17.98;;
43807;SDS011;29438;50.664;10.098;2023-03-03T04:40:23;55.47;;;17.58;;
43807;SDS011;29438;50.664;10.098;2023-03-03T04:42:48;34.28;;;10.50;;
43807;SDS011;29438;50.664;10.098;2023-03-03T04:45:14;56.72;;;17.08;;
43807;SDS011;29438;50.664;10.098;2023-03-03T04:47:40;55.53;;;17.42;;
43807;SDS011;29438;50.664;10.098;2023-03-03T04:50:06;53.60;;;16.23;;
43807;SDS011;29438;50.664;10.098;2023-03-03T04:52:32;55.55;;;15.85;;
43807;SDS011;29438;50.664;10.098;2023-03-03T04:54:58;50.97;;;15.27;;
43807;SDS011;29438;50.664;10.098;2023-03-03T04:57:23;37.58;;;11.38;;
43807;SDS011;29438;50.664;10.098;2023-03-03T04:59:49;49.00;;;14.48;;
43807;SDS011;29438;50.664;10.098;2023-03-03T05:02:15;56.90;;;16.15;;
43807;SDS011;29438;50.664;10.098;2023-03-03T05:04:41;61.45;;;17.83;;
43807;SDS011;29438;50.664;10.098;2023-03-03T05:07:06;61.80;;;19.02;;
43807;SDS011;29438;50.664;10.098;2023-03-03T05:09:32;52.30;;;15.48;;
43807;SDS011;29438;50.664;10.098;2023-03-03T05:11:57;70.07;;;18.35;;
43807;SDS011;29438;50.664;10.098;2023-03-03T05:14:23;45.92;;;13.68;;
43807;SDS011;29438;50.664;10.098;2023-03-03T05:16:49;43.13;;;14.40;;
43807;SDS011;29438;50.664;10.098;2023-03-03T05:19:14;51.90;;;15.50;;
43807;SDS011;29438;50.664;10.098;2023-03-03T05:21:40;52.17;;;16.77;;
43807;SDS011;29438;50.664;10.098;2023-03-03T05:24:06;58.67;;;16.27;;
43807;SDS011;29438;50.664;10.098;2023-03-03T05:26:33;54.45;;;15.55;;
43807;SDS011;29438;50.664;10.098;2023-03-03T05:28:58;55.65;;;15.82;;
43807;SDS011;29438;50.664;10.098;2023-03-03T05:31:24;52.25;;;15.30;;
43807;SDS011;29438;50.664;10.098;2023-03-03T05:33:51;37.50;;;12.32;;
43807;SDS011;29438;50.664;10.098;2023-03-03T05:36:17;48.30;;;15.10;;
43807;SDS011;29438;50.664;10.098;2023-03-03T05:38:42;50.42;;;15.63;;
43807;SDS011;29438;50.664;10.098;2023-03-03T05:41:08;60.08;;;15.57;;
43807;SDS011;29438;50.664;10.098;2023-03-03T05:43:33;48.78;;;13.85;;
43807;SDS011;29438;50.664;10.098;2023-03-03T05:45:59;43.08;;;11.10;;
43807;SDS011;29438;50.664;10.098;2023-03-03T05:48:25;42.70;;;12.38;;
43807;SDS011;29438;50.664;10.098;2023-03-03T05:50:51;66.22;;;15.48;;
43807;SDS011;29438;50.664;10.098;2023-03-03T05:53:17;45.80;;;13.10;;
43807;SDS011;29438;50.664;10.098;2023-03-03T05:55:42;43.83;;;11.93;;
43807;SDS011;29438;50.664;10.098;2023-03-03T05:58:08;39.95;;;10.23;;
43807;SDS011;29438;50.664;10.098;2023-03-03T06:00:33;36.80;;;12.18;;
43807;SDS011;29438;50.664;10.098;2023-03-03T06:02:59;42.88;;;12.40;;
43807;SDS011;29438;50.664;10.098;2023-03-03T06:05:24;46.42;;;11.77;;
43807;SDS011;29438;50.664;10.098;2023-03-03T06:07:50;42.60;;;11.07;;
43807;SDS011;29438;50.664;10.098;2023-03-03T06:10:16;58.78;;;14.38;;
43807;SDS011;29438;50.664;10.098;2023-03-03T06:12:41;39.38;;;12.00;;
43807;SDS011;29438;50.664;10.098;2023-03-03T06:15:07;37.70;;;12.35;;
43807;SDS011;29438;50.664;10.098;2023-03-03T06:17:34;49.47;;;12.25;;
43807;SDS011;29438;50.664;10.098;2023-03-03T06:20:00;58.80;;;13.98;;
43807;SDS011;29438;50.664;10.098;2023-03-03T06:22:25;44.83;;;12.32;;
43807;SDS011;29438;50.664;10.098;2023-03-03T06:24:51;50.05;;;12.05;;
43807;SDS011;29438;50.664;10.098;2023-03-03T06:27:16;40.45;;;10.15;;
43807;SDS011;29438;50.664;10.098;2023-03-03T06:29:42;56.85;;;13.00;;
43807;SDS011;29438;50.664;10.098;2023-03-03T06:32:09;63.42;;;14.05;;
43807;SDS011;29438;50.664;10.098;2023-03-03T06:34:35;56.90;;;13.82;;
43807;SDS011;29438;50.664;10.098;2023-03-03T06:37:00;58.80;;;13.63;;
43807;SDS011;29438;50.664;10.098;2023-03-03T06:39:26;34.38;;;9.45;;
43807;SDS011;29438;50.664;10.098;2023-03-03T06:41:52;34.83;;;11.63;;
43807;SDS011;29438;50.664;10.098;2023-03-03T06:44:17;44.75;;;11.32;;
43807;SDS011;29438;50.664;10.098;2023-03-03T06:46:43;39.55;;;12.75;;
43807;SDS011;29438;50.664;10.098;2023-03-03T06:49:08;50.50;;;13.93;;
43807;SDS011;29438;50.664;10.098;2023-03-03T06:51:35;48.72;;;13.80;;
43807;SDS011;29438;50.664;10.098;2023-03-03T06:54:10;41.42;;;12.65;;
43807;SDS011;29438;50.664;10.098;2023-03-03T06:56:38;52.58;;;12.38;;
43807;SDS011;29438;50.664;10.098;2023-03-03T06:59:09;51.55;;;13.45;;
43807;SDS011;29438;50.664;10.098;2023-03-03T07:01:37;43.78;;;13.23;;
43807;SDS011;29438;50.664;10.098;2023-03-03T07:04:13;48.55;;;13.95;;
43807;SDS011;29438;50.664;10.098;2023-03-03T07:06:43;40.42;;;11.88;;
43807;SDS011;29438;50.664;10.098;2023-03-03T07:09:18;28.65;;;9.02;;
43807;SDS011;29438;50.664;10.098;2023-03-03T07:11:47;40.08;;;10.70;;
43807;SDS011;29438;50.664;10.098;2023-03-03T07:14:18;34.58;;;9.73;;
43807;SDS011;29438;50.664;10.098;2023-03-03T07:16:44;37.47;;;11.35;;
43807;SDS011;29438;50.664;10.098;2023-03-03T07:19:17;31.35;;;9.85;;
43807;SDS011;29438;50.664;10.098;2023-03-03T07:21:47;35.75;;;10.73;;
43807;SDS011;29438;50.664;10.098;2023-03-03T07:24:26;38.40;;;11.63;;
43807;SDS011;29438;50.664;10.098;2023-03-03T07:27:05;20.17;;;7.18;;
43807;SDS011;29438;50.664;10.098;2023-03-03T07:29:38;33.85;;;11.23;;
43807;SDS011;29438;50.664;10.098;2023-03-03T07:32:23;27.88;;;8.20;;
43807;SDS011;29438;50.664;10.098;2023-03-03T07:34:49;26.65;;;8.00;;
43807;SDS011;29438;50.664;10.098;2023-03-03T07:37:26;30.90;;;9.10;;
43807;SDS011;29438;50.664;10.098;2023-03-03T07:39:55;33.25;;;9.00;;
43807;SDS011;29438;50.664;10.098;2023-03-03T07:42:38;34.03;;;9.43;;
43807;SDS011;29438;50.664;10.098;2023-03-03T07:48:18;33.08;;;9.52;;
43807;SDS011;29438;50.664;10.098;2023-03-03T07:50:48;34.35;;;8.57;;
43807;SDS011;29438;50.664;10.098;2023-03-03T07:53:26;33.17;;;9.15;;
43807;SDS011;29438;50.664;10.098;2023-03-03T07:55:53;29.95;;;8.35;;
43807;SDS011;29438;50.664;10.098;2023-03-03T07:58:21;30.75;;;8.80;;
43807;SDS011;29438;50.664;10.098;2023-03-03T08:04:28;36.35;;;10.63;;
43807;SDS011;29438;50.664;10.098;2023-03-03T08:07:01;47.97;;;12.82;;
43807;SDS011;29438;50.664;10.098;2023-03-03T08:09:34;46.25;;;10.77;;
43807;SDS011;29438;50.664;10.098;2023-03-03T08:14:35;32.80;;;9.65;;
43807;SDS011;29438;50.664;10.098;2023-03-03T08:17:06;40.30;;;13.63;;
43807;SDS011;29438;50.664;10.098;2023-03-03T08:19:41;41.35;;;12.27;;
43807;SDS011;29438;50.664;10.098;2023-03-03T08:22:14;40.70;;;11.75;;
43807;SDS011;29438;50.664;10.098;2023-03-03T08:24:42;43.42;;;10.98;;
43807;SDS011;29438;50.664;10.098;2023-03-03T08:27:07;37.38;;;11.25;;
43807;SDS011;29438;50.664;10.098;2023-03-03T08:29:33;30.52;;;9.07;;
43807;SDS011;29438;50.664;10.098;2023-03-03T08:32:00;25.30;;;7.97;;
43807;SDS011;29438;50.664;10.098;2023-03-03T08:34:25;34.05;;;9.93;;
43807;SDS011;29438;50.664;10.098;2023-03-03T08:36:51;33.53;;;9.50;;
43807;SDS011;29438;50.664;10.098;2023-03-03T08:39:17;31.35;;;9.02;;
43807;SDS011;29438;50.664;10.098;2023-03-03T08:41:42;36.70;;;9.07;;
43807;SDS011;29438;50.664;10.098;2023-03-03T08:44:10;33.95;;;10.43;;
43807;SDS011;29438;50.664;10.098;2023-03-03T08:46:35;34.92;;;9.40;;
43807;SDS011;29438;50.664;10.098;2023-03-03T08:49:02;32.25;;;8.68;;
43807;SDS011;29438;50.664;10.098;2023-03-03T08:51:27;37.58;;;10.25;;
43807;SDS011;29438;50.664;10.098;2023-03-03T08:53:53;32.05;;;9.07;;
43807;SDS011;29438;50.664;10.098;2023-03-03T08:56:19;31.67;;;9.65;;
43807;SDS011;29438;50.664;10.098;2023-03-03T08:58:44;32.35;;;9.15;;
43807;SDS011;29438;50.664;10.098;2023-03-03T09:01:12;26.17;;;7.45;;
43807;SDS011;29438;50.664;10.098;2023-03-03T09:03:39;26.00;;;7.75;;
43807;SDS011;29438;50.664;10.098;2023-03-03T09:06:05;32.40;;;8.95;;
43807;SDS011;29438;50.664;10.098;2023-03-03T09:08:30;27.42;;;7.82;;
43807;SDS011;29438;50.664;10.098;2023-03-03T09:10:56;27.23;;;7.68;;
43807;SDS011;29438;50.664;10.098;2023-03-03T09:13:21;27.45;;;8.05;;
43807;SDS011;29438;50.664;10.098;2023-03-03T09:15:47;29.02;;;8.50;;
43807;SDS011;29438;50.664;10.098;2023-03-03T09:20:40;25.85;;;6.75;;
43807;SDS011;29438;50.664;10.098;2023-03-03T09:25:51;14.05;;;4.95;;
43807;SDS011;29438;50.664;10.098;2023-03-03T09:28:20;22.27;;;7.18;;
43807;SDS011;29438;50.664;10.098;2023-03-03T09:30:52;23.50;;;7.20;;
43807;SDS011;29438;50.664;10.098;2023-03-03T09:33:22;22.20;;;6.05;;
43807;SDS011;29438;50.664;10.098;2023-03-03T09:35:51;17.60;;;4.90;;
43807;SDS011;29438;50.664;10.098;2023-03-03T09:38:31;21.77;;;6.72;;
43807;SDS011;29438;50.664;10.098;2023-03-03T09:41:23;21.48;;;6.45;;
43807;SDS011;29438;50.664;10.098;2023-03-03T09:47:00;21.52;;;6.75;;
43807;SDS011;29438;50.664;10.098;2023-03-03T09:49:44;18.75;;;5.97;;
43807;SDS011;29438;50.664;10.098;2023-03-03T09:52:21;22.98;;;6.35;;
43807;SDS011;29438;50.664;10.098;2023-03-03T10:06:32;16.73;;;5.97;;
43807;SDS011;29438;50.664;10.098;2023-03-03T10:09:09;20.30;;;7.20;;
43807;SDS011;29438;50.664;10.098;2023-03-03T10:12:06;19.00;;;5.88;;
43807;SDS011;29438;50.664;10.098;2023-03-03T10:20:25;17.07;;;5.93;;
43807;SDS011;29438;50.664;10.098;2023-03-03T10:25:42;22.48;;;6.00;;
43807;SDS011;29438;50.664;10.098;2023-03-03T10:34:20;18.25;;;5.32;;
43807;SDS011;29438;50.664;10.098;2023-03-03T10:36:54;23.17;;;5.13;;
43807;SDS011;29438;50.664;10.098;2023-03-03T10:39:24;19.40;;;5.40;;
43807;SDS011;29438;50.664;10.098;2023-03-03T10:47:58;19.30;;;5.80;;
43807;SDS011;29438;50.664;10.098;2023-03-03T10:54:12;13.48;;;5.13;;
43807;SDS011;29438;50.664;10.098;2023-03-03T10:57:24;16.02;;;5.10;;
43807;SDS011;29438;50.664;10.098;2023-03-03T11:06:21;13.48;;;4.22;;
43807;SDS011;29438;50.664;10.098;2023-03-03T11:09:32;14.77;;;4.82;;
43807;SDS011;29438;50.664;10.098;2023-03-03T11:23:20;10.68;;;3.67;;
43807;SDS011;29438;50.664;10.098;2023-03-03T11:26:08;10.90;;;3.97;;
43807;SDS011;29438;50.664;10.098;2023-03-03T11:36:47;13.00;;;4.80;;
43807;SDS011;29438;50.664;10.098;2023-03-03T11:39:22;16.13;;;4.93;;
43807;SDS011;29438;50.664;10.098;2023-03-03T11:42:10;11.20;;;3.88;;
43807;SDS011;29438;50.664;10.098;2023-03-03T11:44:46;13.90;;;4.38;;
43807;SDS011;29438;50.664;10.098;2023-03-03T11:47:24;13.15;;;3.97;;
43807;SDS011;29438;50.664;10.098;2023-03-03T11:52:50;12.48;;;4.07;;
43807;SDS011;29438;50.664;10.098;2023-03-03T11:55:37;12.65;;;4.35;;
43807;SDS011;29438;50.664;10.098;2023-03-03T12:03:39;11.93;;;4.47;;
43807;SDS011;29438;50.664;10.098;2023-03-03T12:06:20;12.80;;;4.03;;
43807;SDS011;29438;50.664;10.098;2023-03-03T12:11:48;10.85;;;3.97;;
43807;SDS011;29438;50.664;10.098;2023-03-03T12:14:45;9.80;;;3.70;;
43807;SDS011;29438;50.664;10.098;2023-03-03T12:25:34;14.82;;;4.25;;
43807;SDS011;29438;50.664;10.098;2023-03-03T12:28:26;15.45;;;4.50;;
43807;SDS011;29438;50.664;10.098;2023-03-03T12:33:59;14.43;;;4.53;;
43807;SDS011;29438;50.664;10.098;2023-03-03T12:39:24;11.57;;;4.35;;
43807;SDS011;29438;50.664;10.098;2023-03-03T12:44:43;11.50;;;3.72;;
43807;SDS011;29438;50.664;10.098;2023-03-03T12:47:15;11.40;;;4.38;;
43807;SDS011;29438;50.664;10.098;2023-03-03T12:50:33;14.02;;;4.65;;
43807;SDS011;29438;50.664;10.098;2023-03-03T12:53:00;10.02;;;3.63;;
43807;SDS011;29438;50.664;10.098;2023-03-03T12:55:55;12.05;;;3.53;;
43807;SDS011;29438;50.664;10.098;2023-03-03T13:07:03;10.70;;;3.22;;
43807;SDS011;29438;50.664;10.098;2023-03-03T13:09:48;12.57;;;3.97;;
43807;SDS011;29438;50.664;10.098;2023-03-03T13:12:34;13.20;;;4.15;;
43807;SDS011;29438;50.664;10.098;2023-03-03T13:20:41;12.93;;;4.03;;
43807;SDS011;29438;50.664;10.098;2023-03-03T13:26:16;12.20;;;3.90;;
43807;SDS011;29438;50.664;10.098;2023-03-03T13:29:08;14.73;;;4.20;;
43807;SDS011;29438;50.664;10.098;2023-03-03T13:31:56;14.07;;;4.90;;
43807;SDS011;29438;50.664;10.098;2023-03-03T13:37:13;11.57;;;3.80;;
43807;SDS011;29438;50.664;10.098;2023-03-03T13:39:49;13.52;;;4.85;;
43807;SDS011;29438;50.664;10.098;2023-03-03T13:42:27;12.40;;;4.85;;
43807;SDS011;29438;50.664;10.098;2023-03-03T13:45:21;14.48;;;4.70;;
43807;SDS011;29438;50.664;10.098;2023-03-03T13:53:36;14.73;;;4.82;;
43807;SDS011;29438;50.664;10.098;2023-03-03T13:56:21;10.48;;;3.53;;
43807;SDS011;29438;50.664;10.098;2023-03-03T14:01:51;10.70;;;3.65;;
43807;SDS011;29438;50.664;10.098;2023-03-03T14:04:52;12.47;;;3.97;;
43807;SDS011;29438;50.664;10.098;2023-03-03T14:07:26;10.73;;;3.85;;
43807;SDS011;29438;50.664;10.098;2023-03-03T14:10:17;11.25;;;4.18;;
43807;SDS011;29438;50.664;10.098;2023-03-03T14:13:05;12.57;;;4.30;;
43807;SDS011;29438;50.664;10.098;2023-03-03T14:15:49;14.45;;;4.32;;
43807;SDS011;29438;50.664;10.098;2023-03-03T14:18:30;10.23;;;3.90;;
43807;SDS011;29438;50.664;10.098;2023-03-03T14:21:19;11.15;;;4.07;;
43807;SDS011;29438;50.664;10.098;2023-03-03T14:24:03;10.45;;;4.07;;
43807;SDS011;29438;50.664;10.098;2023-03-03T14:26:49;11.10;;;3.83;;
43807;SDS011;29438;50.664;10.098;2023-03-03T14:29:20;11.73;;;3.97;;
43807;SDS011;29438;50.664;10.098;2023-03-03T14:31:58;11.38;;;3.83;;
43807;SDS011;29438;50.664;10.098;2023-03-03T14:45:33;15.38;;;6.10;;
43807;SDS011;29438;50.664;10.098;2023-03-03T14:48:09;20.63;;;6.85;;
43807;SDS011;29438;50.664;10.098;2023-03-03T14:50:41;19.45;;;7.03;;
43807;SDS011;29438;50.664;10.098;2023-03-03T14:55:44;15.20;;;5.65;;
43807;SDS011;29438;50.664;10.098;2023-03-03T14:58:28;14.32;;;5.15;;
43807;SDS011;29438;50.664;10.098;2023-03-03T15:01:12;21.38;;;8.52;;
43807;SDS011;29438;50.664;10.098;2023-03-03T15:04:02;10.25;;;3.33;;
43807;SDS011;29438;50.664;10.098;2023-03-03T15:09:30;9.05;;;3.47;;
43807;SDS011;29438;50.664;10.098;2023-03-03T15:12:16;8.85;;;3.00;;
43807;SDS011;29438;50.664;10.098;2023-03-03T15:14:48;8.50;;;3.03;;
43807;SDS011;29438;50.664;10.098;2023-03-03T15:17:19;7.70;;;2.67;;
43807;SDS011;29438;50.664;10.098;2023-03-03T15:19:54;9.40;;;3.10;;
43807;SDS011;29438;50.664;10.098;2023-03-03T15:27:43;8.75;;;2.70;;
43807;SDS011;29438;50.664;10.098;2023-03-03T15:30:14;10.02;;;2.95;;
43807;SDS011;29438;50.664;10.098;2023-03-03T15:35:19;8.63;;;2.50;;
43807;SDS011;29438;50.664;10.098;2023-03-03T15:38:00;6.20;;;2.60;;
43807;SDS011;29438;50.664;10.098;2023-03-03T15:43:20;7.13;;;2.65;;
43807;SDS011;29438;50.664;10.098;2023-03-03T15:45:55;8.57;;;2.95;;
43807;SDS011;29438;50.664;10.098;2023-03-03T16:05:01;8.55;;;3.25;;
43807;SDS011;29438;50.664;10.098;2023-03-03T16:08:13;9.20;;;3.40;;
43807;SDS011;29438;50.664;10.098;2023-03-03T16:11:02;38.88;;;5.47;;
43807;SDS011;29438;50.664;10.098;2023-03-03T16:16:34;8.23;;;3.45;;
43807;SDS011;29438;50.664;10.098;2023-03-03T16:25:15;11.57;;;4.68;;
43807;SDS011;29438;50.664;10.098;2023-03-03T16:30:31;10.23;;;3.97;;
43807;SDS011;29438;50.664;10.098;2023-03-03T16:36:08;13.57;;;4.18;;
43807;SDS011;29438;50.664;10.098;2023-03-03T16:38:50;14.13;;;4.70;;
43807;SDS011;29438;50.664;10.098;2023-03-03T16:41:31;13.02;;;3.72;;
43807;SDS011;29438;50.664;10.098;2023-03-03T16:46:48;14.90;;;5.10;;
43807;SDS011;29438;50.664;10.098;2023-03-03T16:54:36;37.60;;;12.13;;
43807;SDS011;29438;50.664;10.098;2023-03-03T16:57:31;12.40;;;4.15;;
43807;SDS011;29438;50.664;10.098;2023-03-03T17:03:11;13.50;;;4.90;;
43807;SDS011;29438;50.664;10.098;2023-03-03T17:08:56;10.38;;;4.72;;
43807;SDS011;29438;50.664;10.098;2023-03-03T17:11:56;15.35;;;5.38;;
43807;SDS011;29438;50.664;10.098;2023-03-03T17:14:20;19.67;;;6.80;;
43807;SDS011;29438;50.664;10.098;2023-03-03T17:22:53;118.88;;;39.95;;
43807;SDS011;29438;50.664;10.098;2023-03-03T17:28:44;59.60;;;23.75;;
43807;SDS011;29438;50.664;10.098;2023-03-03T17:31:30;50.45;;;18.65;;
43807;SDS011;29438;50.664;10.098;2023-03-03T17:37:24;88.78;;;35.35;;
43807;SDS011;29438;50.664;10.098;2023-03-03T17:45:39;73.97;;;28.55;;
43807;SDS011;29438;50.664;10.098;2023-03-03T17:56:44;57.83;;;23.63;;
43807;SDS011;29438;50.664;10.098;2023-03-03T17:59:34;90.72;;;32.28;;
43807;SDS011;29438;50.664;10.098;2023-03-03T18:08:01;57.85;;;22.73;;
43807;SDS011;29438;50.664;10.098;2023-03-03T18:13:28;74.68;;;26.83;;
43807;SDS011;29438;50.664;10.098;2023-03-03T18:16:41;61.40;;;22.58;;
43807;SDS011;29438;50.664;10.098;2023-03-03T18:19:29;33.55;;;13.85;;
43807;SDS011;29438;50.664;10.098;2023-03-03T18:24:36;55.28;;;25.23;;
43807;SDS011;29438;50.664;10.098;2023-03-03T18:37:50;18.75;;;6.50;;
43807;SDS011;29438;50.664;10.098;2023-03-03T18:40:29;22.45;;;9.00;;
43807;SDS011;29438;50.664;10.098;2023-03-03T18:42:55;67.22;;;20.92;;
43807;SDS011;29438;50.664;10.098;2023-03-03T18:53:14;25.55;;;10.00;;
43807;SDS011;29438;50.664;10.098;2023-03-03T18:55:47;26.35;;;9.32;;
43807;SDS011;29438;50.664;10.098;2023-03-03T19:00:45;33.17;;;12.25;;
43807;SDS011;29438;50.664;10.098;2023-03-03T19:03:24;35.53;;;13.20;;
43807;SDS011;29438;50.664;10.098;2023-03-03T19:05:54;33.67;;;13.93;;
43807;SDS011;29438;50.664;10.098;2023-03-03T19:08:25;39.78;;;14.57;;
43807;SDS011;29438;50.664;10.098;2023-03-03T19:10:57;37.53;;;14.23;;
43807;SDS011;29438;50.664;10.098;2023-03-03T19:21:35;42.30;;;17.17;;
43807;SDS011;29438;50.664;10.098;2023-03-03T19:32:24;60.65;;;25.60;;
43807;SDS011;29438;50.664;10.098;2023-03-03T19:40:15;18.63;;;7.60;;
43807;SDS011;29438;50.664;10.098;2023-03-03T19:43:12;21.60;;;7.80;;
43807;SDS011;29438;50.664;10.098;2023-03-03T19:51:54;24.70;;;7.97;;